sensor_id;sensor_type;location;lat;lon;timestamp;temperature;humidity
13806;DHT22;6974;53.606;9.872;2024-03-08T00:00:16;5.00;99.90
13806;DHT22;6974;53.606;9.872;2024-03-08T00:02:44;5.00;99.90
13806;DHT22;6974;53.606;9.872;2024-03-08T00:05:12;5.00;99.90
13806;DHT22;6974;53.606;9.872;2024-03-08T00:07:39;5.00;99.90
13806;DHT22;6974;53.606;9.872;2024-03-08T00:10:08;4.90;99.90
13806;DHT22;6974;53.606;9.872;2024-03-08T00:12:36;4.90;99.90
13806;DHT22;6974;53.606;9.872;2024-03-08T00:15:05;4.90;99.90
13806;DHT22;6974;53.606;9.872;2024-03-08T00:17:32;4.90;99.90
13806;DHT22;6974;53.606;9.872;2024-03-08T00:20:00;4.80;99.90
13806;DHT22;6974;53.606;9.872;2024-03-08T00:22:29;4.80;99.90
13806;DHT22;6974;53.606;9.872;2024-03-08T00:24:56;4.80;99.90
13806;DHT22;6974;53.606;9.872;2024-03-08T00:27:23;4.80;99.90
13806;DHT22;6974;53.606;9.872;2024-03-08T00:29:50;4.80;99.90
13806;DHT22;6974;53.606;9.872;2024-03-08T00:32:18;4.80;99.90
13806;DHT22;6974;53.606;9.872;2024-03-08T00:34:45;4.70;99.90
13806;DHT22;6974;53.606;9.872;2024-03-08T00:37:12;4.70;99.90
13806;DHT22;6974;53.606;9.872;2024-03-08T00:39:39;4.70;99.90
13806;DHT22;6974;53.606;9.872;2024-03-08T00:42:06;4.70;99.90
13806;DHT22;6974;53.606;9.872;2024-03-08T00:44:33;4.70;99.90
13806;DHT22;6974;53.606;9.872;2024-03-08T00:47:00;4.70;99.90
13806;DHT22;6974;53.606;9.872;2024-03-08T00:49:30;4.70;99.90
13806;DHT22;6974;53.606;9.872;2024-03-08T00:51:57;4.60;99.90
13806;DHT22;6974;53.606;9.872;2024-03-08T00:54:23;4.50;99.90
13806;DHT22;6974;53.606;9.872;2024-03-08T00:56:50;4.50;99.90
13806;DHT22;6974;53.606;9.872;2024-03-08T00:59:17;4.50;99.90
13806;DHT22;6974;53.606;9.872;2024-03-08T01:01:44;4.50;99.90
13806;DHT22;6974;53.606;9.872;2024-03-08T01:04:11;4.40;99.90
13806;DHT22;6974;53.606;9.872;2024-03-08T01:06:39;4.40;99.90
13806;DHT22;6974;53.606;9.872;2024-03-08T01:09:06;4.40;99.90
13806;DHT22;6974;53.606;9.872;2024-03-08T01:11:34;4.40;99.90
13806;DHT22;6974;53.606;9.872;2024-03-08T01:14:01;4.40;99.90
13806;DHT22;6974;53.606;9.872;2024-03-08T01:16:28;4.40;99.90
13806;DHT22;6974;53.606;9.872;2024-03-08T01:18:55;4.30;99.90
13806;DHT22;6974;53.606;9.872;2024-03-08T01:21:22;4.30;99.90
13806;DHT22;6974;53.606;9.872;2024-03-08T01:23:50;4.30;99.90
13806;DHT22;6974;53.606;9.872;2024-03-08T01:26:17;4.20;99.90
13806;DHT22;6974;53.606;9.872;2024-03-08T01:28:43;4.20;99.90
13806;DHT22;6974;53.606;9.872;2024-03-08T01:31:10;4.10;99.90
13806;DHT22;6974;53.606;9.872;2024-03-08T01:33:37;4.10;99.90
13806;DHT22;6974;53.606;9.872;2024-03-08T01:36:06;4.10;99.90
13806;DHT22;6974;53.606;9.872;2024-03-08T01:38:33;4.10;99.90
13806;DHT22;6974;53.606;9.872;2024-03-08T01:41:03;4.10;99.90
13806;DHT22;6974;53.606;9.872;2024-03-08T01:43:30;4.10;99.90
13806;DHT22;6974;53.606;9.872;2024-03-08T01:45:57;4.00;99.90
13806;DHT22;6974;53.606;9.872;2024-03-08T01:48:25;4.00;99.90
13806;DHT22;6974;53.606;9.872;2024-03-08T01:50:53;4.00;99.90
13806;DHT22;6974;53.606;9.872;2024-03-08T01:53:21;3.90;99.90
13806;DHT22;6974;53.606;9.872;2024-03-08T01:55:49;3.90;99.90
13806;DHT22;6974;53.606;9.872;2024-03-08T01:58:17;3.90;99.90
13806;DHT22;6974;53.606;9.872;2024-03-08T02:00:46;3.90;99.90
13806;DHT22;6974;53.606;9.872;2024-03-08T02:03:14;3.80;99.90
13806;DHT22;6974;53.606;9.872;2024-03-08T02:05:42;3.80;99.90
13806;DHT22;6974;53.606;9.872;2024-03-08T02:08:09;3.80;99.90
13806;DHT22;6974;53.606;9.872;2024-03-08T02:10:40;3.80;99.90
13806;DHT22;6974;53.606;9.872;2024-03-08T02:13:07;3.80;99.90
13806;DHT22;6974;53.606;9.872;2024-03-08T02:15:55;3.80;99.90
13806;DHT22;6974;53.606;9.872;2024-03-08T02:18:23;3.80;99.90
13806;DHT22;6974;53.606;9.872;2024-03-08T02:20:51;3.80;99.90
13806;DHT22;6974;53.606;9.872;2024-03-08T02:23:18;3.70;99.90
13806;DHT22;6974;53.606;9.872;2024-03-08T02:25:45;3.70;99.90
13806;DHT22;6974;53.606;9.872;2024-03-08T02:28:13;3.70;99.90
13806;DHT22;6974;53.606;9.872;2024-03-08T02:30:40;3.60;99.90
13806;DHT22;6974;53.606;9.872;2024-03-08T02:33:08;3.60;99.90
13806;DHT22;6974;53.606;9.872;2024-03-08T02:35:35;3.60;99.90
13806;DHT22;6974;53.606;9.872;2024-03-08T02:38:04;3.50;99.90
13806;DHT22;6974;53.606;9.872;2024-03-08T02:40:31;3.60;99.90
13806;DHT22;6974;53.606;9.872;2024-03-08T02:42:57;3.60;99.90
13806;DHT22;6974;53.606;9.872;2024-03-08T02:45:24;3.50;99.90
13806;DHT22;6974;53.606;9.872;2024-03-08T02:47:51;3.50;99.90
13806;DHT22;6974;53.606;9.872;2024-03-08T02:50:18;3.50;99.90
13806;DHT22;6974;53.606;9.872;2024-03-08T02:52:45;3.50;99.90
13806;DHT22;6974;53.606;9.872;2024-03-08T02:55:14;3.40;99.90
13806;DHT22;6974;53.606;9.872;2024-03-08T02:57:42;3.50;99.90
13806;DHT22;6974;53.606;9.872;2024-03-08T03:00:10;3.40;99.90
13806;DHT22;6974;53.606;9.872;2024-03-08T03:02:38;3.40;99.90
13806;DHT22;6974;53.606;9.872;2024-03-08T03:05:05;3.40;99.90
13806;DHT22;6974;53.606;9.872;2024-03-08T03:07:32;3.40;99.90
13806;DHT22;6974;53.606;9.872;2024-03-08T03:10:00;3.40;99.90
13806;DHT22;6974;53.606;9.872;2024-03-08T03:12:29;3.40;99.90
13806;DHT22;6974;53.606;9.872;2024-03-08T03:14:56;3.40;99.90
13806;DHT22;6974;53.606;9.872;2024-03-08T03:17:23;3.40;99.90
13806;DHT22;6974;53.606;9.872;2024-03-08T03:19:50;3.40;99.90
13806;DHT22;6974;53.606;9.872;2024-03-08T03:22:17;3.40;99.90
13806;DHT22;6974;53.606;9.872;2024-03-08T03:24:44;3.40;99.90
13806;DHT22;6974;53.606;9.872;2024-03-08T03:27:11;3.40;99.90
13806;DHT22;6974;53.606;9.872;2024-03-08T03:29:40;3.40;99.90
13806;DHT22;6974;53.606;9.872;2024-03-08T03:32:11;3.40;99.90
13806;DHT22;6974;53.606;9.872;2024-03-08T03:34:38;3.40;99.90
13806;DHT22;6974;53.606;9.872;2024-03-08T03:37:05;3.30;99.90
13806;DHT22;6974;53.606;9.872;2024-03-08T03:39:34;3.30;99.90
13806;DHT22;6974;53.606;9.872;2024-03-08T03:42:06;3.30;99.90
13806;DHT22;6974;53.606;9.872;2024-03-08T03:44:33;3.30;99.90
13806;DHT22;6974;53.606;9.872;2024-03-08T03:47:01;3.30;99.90
13806;DHT22;6974;53.606;9.872;2024-03-08T03:49:28;3.30;99.90
13806;DHT22;6974;53.606;9.872;2024-03-08T03:51:55;3.30;99.90
13806;DHT22;6974;53.606;9.872;2024-03-08T03:54:22;3.30;99.90
13806;DHT22;6974;53.606;9.872;2024-03-08T03:56:48;3.30;99.90
13806;DHT22;6974;53.606;9.872;2024-03-08T03:59:18;3.30;99.90
13806;DHT22;6974;53.606;9.872;2024-03-08T04:01:46;3.20;99.90
13806;DHT22;6974;53.606;9.872;2024-03-08T04:04:16;3.30;99.90
13806;DHT22;6974;53.606;9.872;2024-03-08T04:06:43;3.30;99.90
13806;DHT22;6974;53.606;9.872;2024-03-08T04:09:10;3.30;99.90
13806;DHT22;6974;53.606;9.872;2024-03-08T04:11:38;3.20;99.90
13806;DHT22;6974;53.606;9.872;2024-03-08T04:14:04;3.30;99.90
13806;DHT22;6974;53.606;9.872;2024-03-08T04:16:31;3.30;99.90
13806;DHT22;6974;53.606;9.872;2024-03-08T04:18:58;3.20;99.90
13806;DHT22;6974;53.606;9.872;2024-03-08T04:21:26;3.20;99.90
13806;DHT22;6974;53.606;9.872;2024-03-08T04:23:53;3.20;99.90
13806;DHT22;6974;53.606;9.872;2024-03-08T04:26:20;3.20;99.90
13806;DHT22;6974;53.606;9.872;2024-03-08T04:28:47;3.20;99.90
13806;DHT22;6974;53.606;9.872;2024-03-08T04:31:13;3.20;99.90
13806;DHT22;6974;53.606;9.872;2024-03-08T04:33:41;3.20;99.90
13806;DHT22;6974;53.606;9.872;2024-03-08T04:36:08;3.20;99.90
13806;DHT22;6974;53.606;9.872;2024-03-08T04:38:40;3.20;99.90
13806;DHT22;6974;53.606;9.872;2024-03-08T04:41:07;3.20;99.90
13806;DHT22;6974;53.606;9.872;2024-03-08T04:43:34;3.20;99.90
13806;DHT22;6974;53.606;9.872;2024-03-08T04:46:01;3.20;99.90
13806;DHT22;6974;53.606;9.872;2024-03-08T04:48:29;3.10;99.90
13806;DHT22;6974;53.606;9.872;2024-03-08T04:50:56;3.10;99.90
13806;DHT22;6974;53.606;9.872;2024-03-08T04:53:22;3.10;99.90
13806;DHT22;6974;53.606;9.872;2024-03-08T04:55:51;3.10;99.90
13806;DHT22;6974;53.606;9.872;2024-03-08T04:58:18;3.10;99.90
13806;DHT22;6974;53.606;9.872;2024-03-08T05:00:45;3.00;99.90
13806;DHT22;6974;53.606;9.872;2024-03-08T05:03:13;3.10;99.90
13806;DHT22;6974;53.606;9.872;2024-03-08T05:05:40;3.10;99.90
13806;DHT22;6974;53.606;9.872;2024-03-08T05:08:07;3.10;99.90
13806;DHT22;6974;53.606;9.872;2024-03-08T05:10:33;3.10;99.90
13806;DHT22;6974;53.606;9.872;2024-03-08T05:13:02;3.10;99.90
13806;DHT22;6974;53.606;9.872;2024-03-08T05:15:28;3.10;99.90
13806;DHT22;6974;53.606;9.872;2024-03-08T05:17:55;3.10;99.90
13806;DHT22;6974;53.606;9.872;2024-03-08T05:20:23;3.10;99.90
13806;DHT22;6974;53.606;9.872;2024-03-08T05:22:50;3.10;99.90
13806;DHT22;6974;53.606;9.872;2024-03-08T05:25:17;3.10;99.90
13806;DHT22;6974;53.606;9.872;2024-03-08T05:27:44;3.10;99.90
13806;DHT22;6974;53.606;9.872;2024-03-08T05:30:14;3.10;99.90
13806;DHT22;6974;53.606;9.872;2024-03-08T05:32:41;3.10;99.90
13806;DHT22;6974;53.606;9.872;2024-03-08T05:35:10;3.10;99.90
13806;DHT22;6974;53.606;9.872;2024-03-08T05:37:37;3.10;99.90
13806;DHT22;6974;53.606;9.872;2024-03-08T05:40:05;3.10;99.90
13806;DHT22;6974;53.606;9.872;2024-03-08T05:42:34;3.00;99.90
13806;DHT22;6974;53.606;9.872;2024-03-08T05:45:02;3.10;99.90
13806;DHT22;6974;53.606;9.872;2024-03-08T05:47:30;3.10;99.90
13806;DHT22;6974;53.606;9.872;2024-03-08T05:49:57;3.00;99.90
13806;DHT22;6974;53.606;9.872;2024-03-08T05:52:23;3.00;99.90
13806;DHT22;6974;53.606;9.872;2024-03-08T05:54:51;3.00;99.90
13806;DHT22;6974;53.606;9.872;2024-03-08T05:57:18;3.00;99.90
13806;DHT22;6974;53.606;9.872;2024-03-08T05:59:45;3.00;99.90
13806;DHT22;6974;53.606;9.872;2024-03-08T06:02:13;3.00;99.90
13806;DHT22;6974;53.606;9.872;2024-03-08T06:04:45;3.00;99.90
13806;DHT22;6974;53.606;9.872;2024-03-08T06:07:12;3.00;99.90
13806;DHT22;6974;53.606;9.872;2024-03-08T06:09:39;3.00;99.90
13806;DHT22;6974;53.606;9.872;2024-03-08T06:12:06;3.00;99.90
13806;DHT22;6974;53.606;9.872;2024-03-08T06:14:36;3.00;99.90
13806;DHT22;6974;53.606;9.872;2024-03-08T06:17:03;3.00;99.90
13806;DHT22;6974;53.606;9.872;2024-03-08T06:19:32;3.00;99.90
13806;DHT22;6974;53.606;9.872;2024-03-08T06:22:00;3.00;99.90
13806;DHT22;6974;53.606;9.872;2024-03-08T06:24:31;3.00;99.90
13806;DHT22;6974;53.606;9.872;2024-03-08T06:26:57;3.00;99.90
13806;DHT22;6974;53.606;9.872;2024-03-08T06:29:24;3.00;99.90
13806;DHT22;6974;53.606;9.872;2024-03-08T06:31:51;3.00;99.90
13806;DHT22;6974;53.606;9.872;2024-03-08T06:34:19;3.00;99.90
13806;DHT22;6974;53.606;9.872;2024-03-08T06:36:45;3.00;99.90
13806;DHT22;6974;53.606;9.872;2024-03-08T06:39:14;3.00;99.90
13806;DHT22;6974;53.606;9.872;2024-03-08T06:41:40;3.10;99.90
13806;DHT22;6974;53.606;9.872;2024-03-08T06:44:10;3.10;99.90
13806;DHT22;6974;53.606;9.872;2024-03-08T06:46:36;3.10;99.90
13806;DHT22;6974;53.606;9.872;2024-03-08T06:49:04;3.10;99.90
13806;DHT22;6974;53.606;9.872;2024-03-08T06:51:32;3.10;99.90
13806;DHT22;6974;53.606;9.872;2024-03-08T06:53:59;3.20;99.90
13806;DHT22;6974;53.606;9.872;2024-03-08T06:56:28;3.20;99.90
13806;DHT22;6974;53.606;9.872;2024-03-08T06:58:55;3.20;99.90
13806;DHT22;6974;53.606;9.872;2024-03-08T07:01:22;3.20;99.90
13806;DHT22;6974;53.606;9.872;2024-03-08T07:03:48;3.20;99.90
13806;DHT22;6974;53.606;9.872;2024-03-08T07:06:15;3.20;99.90
13806;DHT22;6974;53.606;9.872;2024-03-08T07:08:44;3.20;99.90
13806;DHT22;6974;53.606;9.872;2024-03-08T07:11:12;3.20;99.90
13806;DHT22;6974;53.606;9.872;2024-03-08T07:13:45;3.30;99.90
13806;DHT22;6974;53.606;9.872;2024-03-08T07:16:12;3.40;99.90
13806;DHT22;6974;53.606;9.872;2024-03-08T07:18:38;3.40;99.90
13806;DHT22;6974;53.606;9.872;2024-03-08T07:21:08;3.50;99.90
13806;DHT22;6974;53.606;9.872;2024-03-08T07:23:35;3.60;99.90
13806;DHT22;6974;53.606;9.872;2024-03-08T07:26:28;3.70;99.90
13806;DHT22;6974;53.606;9.872;2024-03-08T07:28:57;3.80;99.90
13806;DHT22;6974;53.606;9.872;2024-03-08T07:31:26;3.90;99.90
13806;DHT22;6974;53.606;9.872;2024-03-08T07:34:03;3.90;99.90
13806;DHT22;6974;53.606;9.872;2024-03-08T07:36:33;4.00;99.90
13806;DHT22;6974;53.606;9.872;2024-03-08T07:39:00;4.00;99.90
13806;DHT22;6974;53.606;9.872;2024-03-08T07:41:27;4.00;99.90
13806;DHT22;6974;53.606;9.872;2024-03-08T07:43:54;4.10;99.90
13806;DHT22;6974;53.606;9.872;2024-03-08T07:46:22;4.20;99.90
13806;DHT22;6974;53.606;9.872;2024-03-08T07:48:49;4.20;99.90
13806;DHT22;6974;53.606;9.872;2024-03-08T07:51:17;4.30;99.90
13806;DHT22;6974;53.606;9.872;2024-03-08T07:53:44;4.30;99.90
13806;DHT22;6974;53.606;9.872;2024-03-08T07:56:11;4.30;99.90
13806;DHT22;6974;53.606;9.872;2024-03-08T07:58:39;4.40;99.90
13806;DHT22;6974;53.606;9.872;2024-03-08T08:01:07;4.40;99.90
13806;DHT22;6974;53.606;9.872;2024-03-08T08:03:35;4.50;99.90
13806;DHT22;6974;53.606;9.872;2024-03-08T08:06:04;4.50;99.90
13806;DHT22;6974;53.606;9.872;2024-03-08T08:08:30;4.60;99.90
13806;DHT22;6974;53.606;9.872;2024-03-08T08:10:57;4.60;99.90
13806;DHT22;6974;53.606;9.872;2024-03-08T08:13:25;4.70;99.90
13806;DHT22;6974;53.606;9.872;2024-03-08T08:15:53;4.70;99.90
13806;DHT22;6974;53.606;9.872;2024-03-08T08:18:20;4.70;99.90
13806;DHT22;6974;53.606;9.872;2024-03-08T08:20:51;4.80;99.90
13806;DHT22;6974;53.606;9.872;2024-03-08T08:23:18;4.90;99.90
13806;DHT22;6974;53.606;9.872;2024-03-08T08:25:46;4.90;99.90
13806;DHT22;6974;53.606;9.872;2024-03-08T08:28:15;5.00;99.90
13806;DHT22;6974;53.606;9.872;2024-03-08T08:30:43;5.00;99.90
13806;DHT22;6974;53.606;9.872;2024-03-08T08:33:09;5.10;99.90
13806;DHT22;6974;53.606;9.872;2024-03-08T08:35:37;5.20;99.90
13806;DHT22;6974;53.606;9.872;2024-03-08T08:38:05;5.20;99.90
13806;DHT22;6974;53.606;9.872;2024-03-08T08:40:33;5.30;99.90
13806;DHT22;6974;53.606;9.872;2024-03-08T08:43:01;5.40;99.90
13806;DHT22;6974;53.606;9.872;2024-03-08T08:45:29;5.40;99.90
13806;DHT22;6974;53.606;9.872;2024-03-08T08:47:56;5.50;99.90
13806;DHT22;6974;53.606;9.872;2024-03-08T08:50:25;5.50;99.90
13806;DHT22;6974;53.606;9.872;2024-03-08T08:52:53;5.60;99.90
13806;DHT22;6974;53.606;9.872;2024-03-08T08:55:22;5.60;99.90
13806;DHT22;6974;53.606;9.872;2024-03-08T08:57:51;5.60;99.90
13806;DHT22;6974;53.606;9.872;2024-03-08T09:00:19;5.70;99.90
13806;DHT22;6974;53.606;9.872;2024-03-08T09:02:46;5.80;99.90
13806;DHT22;6974;53.606;9.872;2024-03-08T09:05:13;5.80;99.90
13806;DHT22;6974;53.606;9.872;2024-03-08T09:07:42;5.90;99.90
13806;DHT22;6974;53.606;9.872;2024-03-08T09:10:10;6.00;99.90
13806;DHT22;6974;53.606;9.872;2024-03-08T09:12:39;6.10;99.90
13806;DHT22;6974;53.606;9.872;2024-03-08T09:15:07;6.10;99.90
13806;DHT22;6974;53.606;9.872;2024-03-08T09:17:36;6.10;99.90
13806;DHT22;6974;53.606;9.872;2024-03-08T09:20:06;6.10;99.90
13806;DHT22;6974;53.606;9.872;2024-03-08T09:22:34;6.20;99.90
13806;DHT22;6974;53.606;9.872;2024-03-08T09:25:01;6.20;99.90
13806;DHT22;6974;53.606;9.872;2024-03-08T09:27:30;6.30;99.90
13806;DHT22;6974;53.606;9.872;2024-03-08T09:29:58;6.40;99.90
13806;DHT22;6974;53.606;9.872;2024-03-08T09:32:26;6.40;99.90
13806;DHT22;6974;53.606;9.872;2024-03-08T09:34:52;6.50;99.90
13806;DHT22;6974;53.606;9.872;2024-03-08T09:37:19;6.60;99.90
13806;DHT22;6974;53.606;9.872;2024-03-08T09:39:46;6.70;99.90
13806;DHT22;6974;53.606;9.872;2024-03-08T09:42:15;6.80;99.90
13806;DHT22;6974;53.606;9.872;2024-03-08T09:44:44;6.90;99.90
13806;DHT22;6974;53.606;9.872;2024-03-08T09:47:13;7.00;99.90
13806;DHT22;6974;53.606;9.872;2024-03-08T09:49:40;7.10;99.90
13806;DHT22;6974;53.606;9.872;2024-03-08T09:52:08;7.20;99.90
13806;DHT22;6974;53.606;9.872;2024-03-08T09:54:36;7.40;99.90
13806;DHT22;6974;53.606;9.872;2024-03-08T09:57:04;7.60;99.90
13806;DHT22;6974;53.606;9.872;2024-03-08T09:59:31;7.80;99.90
13806;DHT22;6974;53.606;9.872;2024-03-08T10:02:16;7.90;99.90
13806;DHT22;6974;53.606;9.872;2024-03-08T10:04:44;8.20;99.90
13806;DHT22;6974;53.606;9.872;2024-03-08T10:07:12;8.40;99.90
13806;DHT22;6974;53.606;9.872;2024-03-08T10:09:40;8.50;99.90
13806;DHT22;6974;53.606;9.872;2024-03-08T10:12:08;8.70;99.90
13806;DHT22;6974;53.606;9.872;2024-03-08T10:14:39;8.90;99.90
13806;DHT22;6974;53.606;9.872;2024-03-08T10:19:51;9.20;99.90
13806;DHT22;6974;53.606;9.872;2024-03-08T10:22:18;9.30;99.90
13806;DHT22;6974;53.606;9.872;2024-03-08T10:24:45;9.30;99.90
13806;DHT22;6974;53.606;9.872;2024-03-08T10:27:12;9.50;99.90
13806;DHT22;6974;53.606;9.872;2024-03-08T10:29:41;9.70;99.90
13806;DHT22;6974;53.606;9.872;2024-03-08T10:32:09;9.80;99.90
13806;DHT22;6974;53.606;9.872;2024-03-08T10:34:37;9.80;99.90
13806;DHT22;6974;53.606;9.872;2024-03-08T10:37:07;9.90;99.90
13806;DHT22;6974;53.606;9.872;2024-03-08T10:39:39;10.10;99.90
13806;DHT22;6974;53.606;9.872;2024-03-08T10:42:12;10.10;99.90
13806;DHT22;6974;53.606;9.872;2024-03-08T10:44:49;10.30;99.90
13806;DHT22;6974;53.606;9.872;2024-03-08T10:47:26;10.40;99.90
13806;DHT22;6974;53.606;9.872;2024-03-08T10:50:02;10.30;99.90
13806;DHT22;6974;53.606;9.872;2024-03-08T10:52:34;10.10;99.90
13806;DHT22;6974;53.606;9.872;2024-03-08T10:55:02;9.90;99.90
13806;DHT22;6974;53.606;9.872;2024-03-08T10:57:30;9.80;99.90
13806;DHT22;6974;53.606;9.872;2024-03-08T10:59:58;9.80;99.90
13806;DHT22;6974;53.606;9.872;2024-03-08T11:02:25;9.70;99.90
13806;DHT22;6974;53.606;9.872;2024-03-08T11:04:53;9.80;99.90
13806;DHT22;6974;53.606;9.872;2024-03-08T11:07:22;9.80;99.90
13806;DHT22;6974;53.606;9.872;2024-03-08T11:09:50;9.90;99.90
13806;DHT22;6974;53.606;9.872;2024-03-08T11:12:25;9.70;99.90
13806;DHT22;6974;53.606;9.872;2024-03-08T11:14:55;9.40;99.90
13806;DHT22;6974;53.606;9.872;2024-03-08T11:20:10;9.50;99.90
13806;DHT22;6974;53.606;9.872;2024-03-08T11:22:42;9.60;99.90
13806;DHT22;6974;53.606;9.872;2024-03-08T11:25:31;9.70;99.90
13806;DHT22;6974;53.606;9.872;2024-03-08T11:28:11;9.80;99.90
13806;DHT22;6974;53.606;9.872;2024-03-08T11:30:45;9.90;99.90
13806;DHT22;6974;53.606;9.872;2024-03-08T11:33:14;9.90;99.90
13806;DHT22;6974;53.606;9.872;2024-03-08T11:35:42;9.90;99.90
13806;DHT22;6974;53.606;9.872;2024-03-08T11:38:11;9.90;99.90
13806;DHT22;6974;53.606;9.872;2024-03-08T11:40:40;9.90;99.90
13806;DHT22;6974;53.606;9.872;2024-03-08T11:43:07;10.00;99.90
13806;DHT22;6974;53.606;9.872;2024-03-08T11:45:35;10.00;99.90
13806;DHT22;6974;53.606;9.872;2024-03-08T11:48:03;10.00;99.90
13806;DHT22;6974;53.606;9.872;2024-03-08T11:50:30;10.00;99.90
13806;DHT22;6974;53.606;9.872;2024-03-08T11:53:02;10.00;99.90
13806;DHT22;6974;53.606;9.872;2024-03-08T11:55:29;10.20;99.90
13806;DHT22;6974;53.606;9.872;2024-03-08T11:58:02;10.10;99.90
13806;DHT22;6974;53.606;9.872;2024-03-08T12:00:30;10.10;99.90
13806;DHT22;6974;53.606;9.872;2024-03-08T12:03:05;10.20;99.90
13806;DHT22;6974;53.606;9.872;2024-03-08T12:05:32;10.10;99.90
13806;DHT22;6974;53.606;9.872;2024-03-08T12:08:00;10.20;99.90
13806;DHT22;6974;53.606;9.872;2024-03-08T12:10:27;10.10;99.90
13806;DHT22;6974;53.606;9.872;2024-03-08T12:12:56;10.00;99.90
13806;DHT22;6974;53.606;9.872;2024-03-08T12:15:26;10.00;99.90
13806;DHT22;6974;53.606;9.872;2024-03-08T12:17:54;10.00;99.90
13806;DHT22;6974;53.606;9.872;2024-03-08T12:20:23;10.00;99.90
13806;DHT22;6974;53.606;9.872;2024-03-08T12:22:51;10.00;99.90
13806;DHT22;6974;53.606;9.872;2024-03-08T12:25:20;10.00;99.90
13806;DHT22;6974;53.606;9.872;2024-03-08T12:27:47;10.00;99.90
13806;DHT22;6974;53.606;9.872;2024-03-08T12:30:19;10.10;99.90
13806;DHT22;6974;53.606;9.872;2024-03-08T12:32:50;10.10;99.90
13806;DHT22;6974;53.606;9.872;2024-03-08T12:35:19;10.10;99.90
13806;DHT22;6974;53.606;9.872;2024-03-08T12:37:49;10.20;99.90
13806;DHT22;6974;53.606;9.872;2024-03-08T12:40:17;10.20;99.90
13806;DHT22;6974;53.606;9.872;2024-03-08T12:42:44;10.20;99.90
13806;DHT22;6974;53.606;9.872;2024-03-08T12:45:13;10.20;99.90
13806;DHT22;6974;53.606;9.872;2024-03-08T12:47:40;10.20;99.90
13806;DHT22;6974;53.606;9.872;2024-03-08T12:50:10;10.20;99.90
13806;DHT22;6974;53.606;9.872;2024-03-08T12:52:37;10.20;99.90
13806;DHT22;6974;53.606;9.872;2024-03-08T12:55:04;10.20;99.90
13806;DHT22;6974;53.606;9.872;2024-03-08T12:57:35;10.30;99.90
13806;DHT22;6974;53.606;9.872;2024-03-08T13:00:04;10.30;99.90
13806;DHT22;6974;53.606;9.872;2024-03-08T13:02:38;10.30;99.90
13806;DHT22;6974;53.606;9.872;2024-03-08T13:05:06;10.40;99.90
13806;DHT22;6974;53.606;9.872;2024-03-08T13:07:37;10.40;99.90
13806;DHT22;6974;53.606;9.872;2024-03-08T13:10:05;10.40;99.90
13806;DHT22;6974;53.606;9.872;2024-03-08T13:12:32;10.50;99.90
13806;DHT22;6974;53.606;9.872;2024-03-08T13:15:01;10.50;99.90
13806;DHT22;6974;53.606;9.872;2024-03-08T13:17:29;10.50;99.90
13806;DHT22;6974;53.606;9.872;2024-03-08T13:19:56;10.60;99.90
13806;DHT22;6974;53.606;9.872;2024-03-08T13:22:24;10.60;99.90
13806;DHT22;6974;53.606;9.872;2024-03-08T13:24:54;10.60;99.90
13806;DHT22;6974;53.606;9.872;2024-03-08T13:27:21;10.80;99.90
13806;DHT22;6974;53.606;9.872;2024-03-08T13:29:50;10.80;99.90
13806;DHT22;6974;53.606;9.872;2024-03-08T13:32:17;10.80;99.90
13806;DHT22;6974;53.606;9.872;2024-03-08T13:34:46;10.90;99.90
13806;DHT22;6974;53.606;9.872;2024-03-08T13:37:13;10.90;99.90
13806;DHT22;6974;53.606;9.872;2024-03-08T13:39:41;10.90;99.90
13806;DHT22;6974;53.606;9.872;2024-03-08T13:42:11;10.90;99.90
13806;DHT22;6974;53.606;9.872;2024-03-08T13:44:43;10.90;99.90
13806;DHT22;6974;53.606;9.872;2024-03-08T13:47:11;11.00;99.90
13806;DHT22;6974;53.606;9.872;2024-03-08T13:49:39;11.00;99.90
13806;DHT22;6974;53.606;9.872;2024-03-08T13:52:09;10.90;99.90
13806;DHT22;6974;53.606;9.872;2024-03-08T13:54:36;10.90;99.90
13806;DHT22;6974;53.606;9.872;2024-03-08T13:57:04;10.90;99.90
13806;DHT22;6974;53.606;9.872;2024-03-08T13:59:34;10.90;99.90
13806;DHT22;6974;53.606;9.872;2024-03-08T14:02:01;11.00;99.90
13806;DHT22;6974;53.606;9.872;2024-03-08T14:04:28;11.00;99.90
13806;DHT22;6974;53.606;9.872;2024-03-08T14:06:55;11.00;99.90
13806;DHT22;6974;53.606;9.872;2024-03-08T14:09:27;11.00;99.90
13806;DHT22;6974;53.606;9.872;2024-03-08T14:11:54;11.00;99.90
13806;DHT22;6974;53.606;9.872;2024-03-08T14:14:21;11.00;99.90
13806;DHT22;6974;53.606;9.872;2024-03-08T14:16:50;11.00;99.90
13806;DHT22;6974;53.606;9.872;2024-03-08T14:19:18;11.00;99.90
13806;DHT22;6974;53.606;9.872;2024-03-08T14:21:45;10.90;99.90
13806;DHT22;6974;53.606;9.872;2024-03-08T14:24:14;10.90;99.90
13806;DHT22;6974;53.606;9.872;2024-03-08T14:26:41;10.90;99.90
13806;DHT22;6974;53.606;9.872;2024-03-08T14:29:08;10.80;99.90
13806;DHT22;6974;53.606;9.872;2024-03-08T14:31:35;10.80;99.90
13806;DHT22;6974;53.606;9.872;2024-03-08T14:34:03;10.80;99.90
13806;DHT22;6974;53.606;9.872;2024-03-08T14:36:30;10.80;99.90
13806;DHT22;6974;53.606;9.872;2024-03-08T14:38:57;10.80;99.90
13806;DHT22;6974;53.606;9.872;2024-03-08T14:41:24;10.80;99.90
13806;DHT22;6974;53.606;9.872;2024-03-08T14:43:52;10.80;99.90
13806;DHT22;6974;53.606;9.872;2024-03-08T14:46:19;10.70;99.90
13806;DHT22;6974;53.606;9.872;2024-03-08T14:48:48;10.70;99.90
13806;DHT22;6974;53.606;9.872;2024-03-08T14:51:18;10.60;99.90
13806;DHT22;6974;53.606;9.872;2024-03-08T14:53:45;10.70;99.90
13806;DHT22;6974;53.606;9.872;2024-03-08T14:56:12;10.70;99.90
13806;DHT22;6974;53.606;9.872;2024-03-08T14:58:41;10.70;99.90
13806;DHT22;6974;53.606;9.872;2024-03-08T15:01:09;10.70;99.90
13806;DHT22;6974;53.606;9.872;2024-03-08T15:03:36;10.70;99.90
13806;DHT22;6974;53.606;9.872;2024-03-08T15:06:04;10.70;99.90
13806;DHT22;6974;53.606;9.872;2024-03-08T15:08:35;10.70;99.90
13806;DHT22;6974;53.606;9.872;2024-03-08T15:11:02;10.70;99.90
13806;DHT22;6974;53.606;9.872;2024-03-08T15:13:29;10.60;99.90
13806;DHT22;6974;53.606;9.872;2024-03-08T15:16:05;10.60;99.90
13806;DHT22;6974;53.606;9.872;2024-03-08T15:18:33;10.50;99.90
13806;DHT22;6974;53.606;9.872;2024-03-08T15:21:02;10.60;99.90
13806;DHT22;6974;53.606;9.872;2024-03-08T15:23:34;10.50;99.90
13806;DHT22;6974;53.606;9.872;2024-03-08T15:26:01;10.50;99.90
13806;DHT22;6974;53.606;9.872;2024-03-08T15:28:29;10.60;99.90
13806;DHT22;6974;53.606;9.872;2024-03-08T15:31:03;10.50;99.90
13806;DHT22;6974;53.606;9.872;2024-03-08T15:33:32;10.50;99.90
13806;DHT22;6974;53.606;9.872;2024-03-08T15:35:59;10.50;99.90
13806;DHT22;6974;53.606;9.872;2024-03-08T15:38:29;10.50;99.90
13806;DHT22;6974;53.606;9.872;2024-03-08T15:40:58;10.40;99.90
13806;DHT22;6974;53.606;9.872;2024-03-08T15:43:25;10.40;99.90
13806;DHT22;6974;53.606;9.872;2024-03-08T15:45:52;10.30;99.90
13806;DHT22;6974;53.606;9.872;2024-03-08T15:48:20;10.20;99.90
13806;DHT22;6974;53.606;9.872;2024-03-08T15:50:47;10.20;99.90
13806;DHT22;6974;53.606;9.872;2024-03-08T15:53:15;10.20;99.90
13806;DHT22;6974;53.606;9.872;2024-03-08T15:55:42;10.10;99.90
13806;DHT22;6974;53.606;9.872;2024-03-08T15:58:11;10.20;99.90
13806;DHT22;6974;53.606;9.872;2024-03-08T16:00:38;10.20;99.90
13806;DHT22;6974;53.606;9.872;2024-03-08T16:03:12;10.10;99.90
13806;DHT22;6974;53.606;9.872;2024-03-08T16:05:40;10.10;99.90
13806;DHT22;6974;53.606;9.872;2024-03-08T16:08:09;10.10;99.90